KJCT - Junction/Kimble Cnty, TX, US

Issued at 1720 UTC 16 Oct 2021
Updated at 1841 UTC 16 Oct 2021
Potential Impact None Slight Moderate High
Time1751Z 16/19Z 16/20Z 16/21Z 16/22Z 16/23Z 17/00Z 17/01Z 17/02Z 17/03Z 17/04Z 17/05Z 17/06Z 17/07Z>>
Type OBS PRVL PRVL PRVL PRVL PRVL PRVL PRVL PRVL PRVL PRVL PRVL PRVL PRVL
VIS 10 >6 >6 >6 >6 >6 >6 >6 >6 >6 >6 >6 >6 >6
CIG -- -- -- -- -- -- -- -- -- -- -- -- -- --
Cover CLR SKC SKC SKC SKC SKC SCT SCT SCT SCT SCT SCT SCT SCT
FltCat VFR VFR VFR VFR VFR VFR VFR VFR VFR VFR VFR VFR VFR VFR
WX -- -- -- -- -- -- -- -- -- -- -- -- -- --
WDir VRB 50 50 50 50 50 VRB VRB VRB VRB VRB VRB VRB VRB
WSpd 4 7 7 7 7 7 3 3 3 3 3 3 3 3
WGst 18 -- -- -- -- -- -- -- -- -- -- -- -- --
Raw TAF
KJCT 161720Z 1618/1718 05007KT P6SM SKC
  FM170000 VRB03KT P6SM SCT250


Raw METAR
KJCT 161751Z AUTO VRB04G18KT 10SM CLR 20/M01 A3042 RMK AO2 SLP275 T02001011 10206 20078 58010
KJCT 161651Z AUTO 07012G23KT 10SM CLR 19/M02 A3045 RMK AO2 SLP284 T01941022
KJCT 161551Z AUTO 10009KT 10SM CLR 17/03 A3045 RMK AO2 SLP286 T01720028

METAR Board
Radar Display
Forecast Discussion
For situational awareness. Not to be used for flight planning purposes.